Ship Status Report: callsign AMOUK35

sailwx.info

Track history (hours):
 
Tides and Currents Weather Stations Pressure Air Temp Water Temp Dewpoint Dewpoint Depression Visibility Wind Speed Wind Dir Waves Ship Positions

Callsign AMOUK35 (name unknown)

Last reported at 2015-Jan-31 00:00 UTC. Time now 2015-Jan-31 00:48 UTC.
Position N 55°54' W 004°48'.

Barometer 979.4 mb
Air temperature 4.1 ° C
Dewpoint 0.6 ° C

Date/timePositionNaut miles runAvg speedWind from/ knotsBaromVisibWave heightAir tempDewpointWater temp
2015-Jan-31 00:00N 55°54' W 004°48'0 0.0 979.4 4.1 0.6
2015-Jan-30 23:00N 55°54' W 004°48'0 0.0 978.0 4.1 0.5
2015-Jan-30 22:00N 55°54' W 004°48'0 0.0 977.3 4.1-0.0
2015-Jan-30 21:00N 55°54' W 004°48'0 0.0 977.3 3.8 0.1
2015-Jan-30 20:00N 55°54' W 004°48'0 0.0 977.4 3.8 0.1
2015-Jan-30 19:00N 55°54' W 004°48'0 0.0 977.0 3.7 0.2
2015-Jan-30 18:00N 55°54' W 004°48'0 0.0 976.7 4.0-0.0
2015-Jan-30 17:00N 55°54' W 004°48'0 0.0 976.2 3.5-0.3
2015-Jan-30 16:00N 55°54' W 004°48'0 0.0 976.6 3.9-0.8
2015-Jan-30 15:00N 55°54' W 004°48'0 0.0 976.6 4.2-0.7
2015-Jan-30 14:00N 55°54' W 004°48'0 0.0 977.2 4.3-0.5
2015-Jan-30 13:00N 55°54' W 004°48'0 0.0 977.3 5.2-0.4
2015-Jan-30 11:00N 55°54' W 004°48'0 0.0 978.4 5.1-0.4
2015-Jan-30 10:00N 55°54' W 004°48'0 0.0 978.5 3.5-0.5
2015-Jan-30 09:00N 55°54' W 004°48'0 0.0 978.5 4.5-0.8
2015-Jan-30 08:00N 55°54' W 004°48'0 0.0 977.9 4.9-1.1
2015-Jan-30 07:00N 55°54' W 004°48'0 0.0 977.4 4.8-0.0
2015-Jan-30 06:00N 55°54' W 004°48'0 0.0 977.3 3.7 0.6
2015-Jan-30 05:00N 55°54' W 004°48'0 0.0 977.2 3.9 1.0
2015-Jan-30 04:00N 55°54' W 004°48'0 0.0 976.7 3.2 0.3
2015-Jan-30 03:00N 55°54' W 004°48'0 0.0 976.5 3.2-0.2
2015-Jan-30 02:00N 55°54' W 004°48'0 0.0 976.1 2.2-1.3
2015-Jan-30 01:00N 55°54' W 004°48'0 0.0 976.3 1.5-2.0
2015-Jan-30 00:00N 55°54' W 004°48'0 0.0 975.8 0.7-1.3
2015-Jan-29 23:00N 55°54' W 004°48'0 0.0 975.0 1.1-1.1
2015-Jan-29 22:00N 55°54' W 004°48'0 0.0 974.1 1.9-0.7
2015-Jan-29 21:00N 55°54' W 004°48'0 0.0 972.9 2.1-0.9
2015-Jan-29 20:00N 55°54' W 004°48'0 0.0 973.1 2.1-0.9
2015-Jan-29 19:00N 55°54' W 004°48'0 0.0 973.3 1.9-1.3
2015-Jan-29 18:00N 55°54' W 004°48'0 0.0 973.8 2.0-1.5
2015-Jan-29 17:00N 55°54' W 004°48'0 0.0 974.2 2.7-1.3
2015-Jan-29 16:00N 55°54' W 004°48'0 0.0 973.8 2.7-0.6
2015-Jan-29 15:00N 55°54' W 004°48'0 0.0 974.3 3.8-0.6
2015-Jan-29 14:00N 55°54' W 004°48'0 0.0 974.2 2.9-0.1
2015-Jan-29 13:00N 55°54' W 004°48'0 0.0 974.1 2.0 0.1
2015-Jan-29 12:00N 55°54' W 004°48'0 0.0 974.5 1.7-0.5
2015-Jan-29 11:00N 55°54' W 004°48'0 0.0 975.0 2.1-0.2
2015-Jan-29 10:00N 55°54' W 004°48'21 0.7 975.6 1.4-0.7
2015-Jan-28 05:00N 56°00' W 005°24'0 0.0 992.1 7.7 3.7
2015-Jan-28 04:00N 56°00' W 005°24'0 0.0 994.2 8.4 5.9
2015-Jan-28 03:00N 56°00' W 005°24'0 0.0 995.8 8.7 7.6
2015-Jan-28 02:00N 56°00' W 005°24'0 0.0 998.7 8.4 7.3
2015-Jan-28 01:00N 56°00' W 005°24'0 0.0 1001.2 8.1 7.0
2015-Jan-28 00:00N 56°00' W 005°24'0 0.0 1003.7 7.9 6.6
2015-Jan-27 23:00N 56°00' W 005°24'0 0.0 1005.2 7.9 6.3
2015-Jan-27 22:00N 56°00' W 005°24'0 0.0 1008.2 7.5 6.0
2015-Jan-27 21:00N 56°00' W 005°24'6 6.0 1010.2 7.1 5.5
2015-Jan-27 20:00N 55°54' W 005°24'9 9.0 1011.6 7.4 5.2
2015-Jan-27 19:00N 55°48' W 005°12'1212.5 1013.8 7.8 5.0
2015-Jan-27 18:00N 55°36' W 005°06'6 6.0 1016.2 7.5 5.4
2015-Jan-27 17:00N 55°30' W 005°06'0 0.0 1017.2 7.2 5.0
2015-Jan-27 16:00N 55°30' W 005°06'0 0.0 1018.5 7.5 5.0
2015-Jan-27 15:00N 55°30' W 005°06'7 6.9 1019.5 7.7 5.1
2015-Jan-27 14:00N 55°36' W 005°00'1212.0 1019.7 7.3 5.1
2015-Jan-27 13:00N 55°48' W 005°00'7 6.9 1020.8 7.8 5.5
2015-Jan-27 12:00N 55°54' W 004°54'3 3.4 1021.4 8.4 5.1
2015-Jan-27 11:00N 55°54' W 004°48'0 0.0 1022.1 8.4 5.4
2015-Jan-27 10:00N 55°54' W 004°48'0 0.0 1022.7 7.8 5.4
2015-Jan-27 09:00N 55°54' W 004°48'0 0.0 1022.9 7.4 5.4
2015-Jan-27 08:00N 55°54' W 004°48'0 0.0 1023.0 7.2 5.3
2015-Jan-27 07:00N 55°54' W 004°48'0 0.0 1022.8 7.2 5.3
2015-Jan-27 06:00N 55°54' W 004°48'0 0.0 1023.3 7.1 5.1
2015-Jan-27 05:00N 55°54' W 004°48'0 0.0 1023.6 6.9 5.0
2015-Jan-27 04:00N 55°54' W 004°48'0 0.0 1024.1 6.7 4.8
2015-Jan-27 03:00N 55°54' W 004°48'0 0.0 1024.3 6.7 4.5
2015-Jan-27 02:00N 55°54' W 004°48'0 0.0 1024.4 6.5 4.3
2015-Jan-27 01:00N 55°54' W 004°48'0 0.0 1024.4 6.5 3.6
2015-Jan-27 00:00N 55°54' W 004°48'0 0.0 1024.9 6.3 2.9
2015-Jan-26 23:00N 55°54' W 004°48'0 0.0 1025.0 6.5 2.8
2015-Jan-26 22:00N 55°54' W 004°48'0 0.0 1024.8 5.9 2.7
2015-Jan-26 21:00N 55°54' W 004°48'0 0.0 1024.7 6.3 2.3
2015-Jan-26 20:00N 55°54' W 004°48'0 0.0 1024.2 6.4 1.9
2015-Jan-26 19:00N 55°54' W 004°48'0 0.0 1024.0 6.6 1.8
2015-Jan-26 18:00N 55°54' W 004°48'0 0.0 1022.9 6.5 1.3
2015-Jan-26 17:00N 55°54' W 004°48'0 0.0 1022.4 6.6 1.4
2015-Jan-26 16:00N 55°54' W 004°48'0 0.0 1022.0 7.0 1.5
2015-Jan-26 15:00N 55°54' W 004°48'0 0.0 1021.1 6.7 2.0
2015-Jan-26 14:00N 55°54' W 004°48'0 0.0 1020.9 7.6 1.3
2015-Jan-26 13:00N 55°54' W 004°48'0 0.0 1020.4 7.2 1.3
2015-Jan-26 12:00N 55°54' W 004°48'78 2.7 1020.2 6.9 1.7
2015-Jan-25 07:00N 54°42' W 005°42'0 0.0 1023.8 7.2 4.4
2015-Jan-25 05:00N 54°42' W 005°42'0 0.0 1025.0 6.8 3.4
2015-Jan-25 04:00N 54°42' W 005°42'0 0.0 1025.4 6.6 3.0
2015-Jan-25 03:00N 54°42' W 005°42'0 0.0 1025.9 6.7 2.8
2015-Jan-25 02:00N 54°42' W 005°42'0 0.0 1025.6 6.4 2.4
2015-Jan-25 01:00N 54°42' W 005°42'0 0.0 1026.6 6.2 2.1
2015-Jan-25 00:00N 54°42' W 005°42'0 0.0 1026.8 6.2 1.9
2015-Jan-24 23:00N 54°42' W 005°42'0 0.0 1027.5 6.0 1.9
2015-Jan-24 22:00N 54°42' W 005°42'0 0.0 1028.4 5.9 1.7
2015-Jan-24 21:00N 54°42' W 005°42'0 0.0 1028.6 5.9 1.8
2015-Jan-24 20:00N 54°42' W 005°42'0 0.0 1029.0 5.8 1.9
2015-Jan-24 19:00N 54°42' W 005°42'7 6.9 1028.9 5.9 2.1
2015-Jan-24 18:00N 54°42' W 005°30'1212.5 1027.9 6.7 3.0
2015-Jan-24 17:00N 54°30' W 005°24'1212.0 1028.0 7.1 2.9
2015-Jan-24 16:00N 54°18' W 005°24'7 6.9 1027.8 7.4 2.7
2015-Jan-24 15:00N 54°12' W 005°30'1413.9 1027.8 7.9 3.1
2015-Jan-24 14:00N 54°00' W 005°42'7 7.0 1027.5 6.9 2.7
2015-Jan-24 13:00N 53°54' W 005°48'1312.5 1027.9 6.6 2.5
2015-Jan-24 12:00N 53°42' W 005°54'7 7.0 1028.0 6.6 2.2
2015-Jan-24 11:00N 53°36' W 006°00'1212.0 1027.8 4.8 1.1
2015-Jan-24 10:00N 53°24' W 006°00'36 1.1 1027.9 4.9 1.1
2015-Jan-23 02:00N 53°24' W 005°00'9 9.3 1021.1 8.0 4.9
2015-Jan-23 01:00N 53°30' W 004°48'7 7.0 1021.5 6.8 4.4
2015-Jan-23 00:00N 53°36' W 004°42'7 7.1 1022.4 6.2 3.7
2015-Jan-22 23:00N 53°36' W 004°30'7 7.1 1022.8 5.4 2.5
2015-Jan-22 22:00N 53°36' W 004°18'7 7.1 1023.2 5.5 2.7
2015-Jan-22 21:00N 53°36' W 004°06'7 7.1 1023.7 5.1 2.2
2015-Jan-22 20:00N 53°36' W 003°54'7 7.1 1024.0 5.5 2.2
2015-Jan-22 19:00N 53°36' W 003°42'9 9.3 1023.7 5.4 2.1
2015-Jan-22 18:00N 53°42' W 003°30'7 7.1 1023.9 4.9 1.5
2015-Jan-22 17:00N 53°42' W 003°18'4 3.6 1023.2 4.2 1.3
2015-Jan-22 16:00N 53°42' W 003°12'0 0.0 1023.1 4.0 1.0
2015-Jan-22 15:00N 53°42' W 003°12'0 0.0 1022.4 4.0 1.2
2015-Jan-22 14:00N 53°42' W 003°12'0 0.0 1021.8 3.7 1.0
2015-Jan-22 13:00N 53°42' W 003°12'0 0.0 1021.7 3.3 0.7
2015-Jan-22 12:00N 53°42' W 003°12'7 7.0 1021.3 2.5 0.1
2015-Jan-22 11:00N 53°48' W 003°18'16 0.8 1021.3 3.2 0.5
2015-Jan-21 14:00N 54°00' W 003°36'1212.0 1007.9 3.6 0.8
2015-Jan-21 13:00N 54°12' W 003°36'1212.0 1007.6 4.6 1.3
2015-Jan-21 12:00N 54°24' W 003°36'   1007.4 4.5 0.1
Track history (hours):
 
Tides and Currents Weather Stations Pressure Air Temp Water Temp Dewpoint Dewpoint Depression Visibility Wind Speed Wind Dir Waves Ship Positions

Callsign AMOUK35 (name unknown)

Last reported at 2015-Jan-31 00:00 UTC. Time now 2015-Jan-31 00:48 UTC.
Position N 55°54' W 004°48'.

Barometer 979.4 mb
Air temperature 4.1 ° C
Dewpoint 0.6 ° C

Date/timePositionNaut miles runAvg speedWind from/ knotsBaromVisibWave heightAir tempDewpointWater temp
2015-Jan-31 00:00N 55°54' W 004°48'0 0.0 979.4 4.1 0.6
2015-Jan-30 23:00N 55°54' W 004°48'0 0.0 978.0 4.1 0.5
2015-Jan-30 22:00N 55°54' W 004°48'0 0.0 977.3 4.1-0.0
2015-Jan-30 21:00N 55°54' W 004°48'0 0.0 977.3 3.8 0.1
2015-Jan-30 20:00N 55°54' W 004°48'0 0.0 977.4 3.8 0.1
2015-Jan-30 19:00N 55°54' W 004°48'0 0.0 977.0 3.7 0.2
2015-Jan-30 18:00N 55°54' W 004°48'0 0.0 976.7 4.0-0.0
2015-Jan-30 17:00N 55°54' W 004°48'0 0.0 976.2 3.5-0.3
2015-Jan-30 16:00N 55°54' W 004°48'0 0.0 976.6 3.9-0.8
2015-Jan-30 15:00N 55°54' W 004°48'0 0.0 976.6 4.2-0.7
2015-Jan-30 14:00N 55°54' W 004°48'0 0.0 977.2 4.3-0.5
2015-Jan-30 13:00N 55°54' W 004°48'0 0.0 977.3 5.2-0.4
2015-Jan-30 11:00N 55°54' W 004°48'0 0.0 978.4 5.1-0.4
2015-Jan-30 10:00N 55°54' W 004°48'0 0.0 978.5 3.5-0.5
2015-Jan-30 09:00N 55°54' W 004°48'0 0.0 978.5 4.5-0.8
2015-Jan-30 08:00N 55°54' W 004°48'0 0.0 977.9 4.9-1.1
2015-Jan-30 07:00N 55°54' W 004°48'0 0.0 977.4 4.8-0.0
2015-Jan-30 06:00N 55°54' W 004°48'0 0.0 977.3 3.7 0.6
2015-Jan-30 05:00N 55°54' W 004°48'0 0.0 977.2 3.9 1.0
2015-Jan-30 04:00N 55°54' W 004°48'0 0.0 976.7 3.2 0.3
2015-Jan-30 03:00N 55°54' W 004°48'0 0.0 976.5 3.2-0.2
2015-Jan-30 02:00N 55°54' W 004°48'0 0.0 976.1 2.2-1.3
2015-Jan-30 01:00N 55°54' W 004°48'0 0.0 976.3 1.5-2.0
2015-Jan-30 00:00N 55°54' W 004°48'0 0.0 975.8 0.7-1.3
2015-Jan-29 23:00N 55°54' W 004°48'0 0.0 975.0 1.1-1.1
2015-Jan-29 22:00N 55°54' W 004°48'0 0.0 974.1 1.9-0.7
2015-Jan-29 21:00N 55°54' W 004°48'0 0.0 972.9 2.1-0.9
2015-Jan-29 20:00N 55°54' W 004°48'0 0.0 973.1 2.1-0.9
2015-Jan-29 19:00N 55°54' W 004°48'0 0.0 973.3 1.9-1.3
2015-Jan-29 18:00N 55°54' W 004°48'0 0.0 973.8 2.0-1.5
2015-Jan-29 17:00N 55°54' W 004°48'0 0.0 974.2 2.7-1.3
2015-Jan-29 16:00N 55°54' W 004°48'0 0.0 973.8 2.7-0.6
2015-Jan-29 15:00N 55°54' W 004°48'0 0.0 974.3 3.8-0.6
2015-Jan-29 14:00N 55°54' W 004°48'0 0.0 974.2 2.9-0.1
2015-Jan-29 13:00N 55°54' W 004°48'0 0.0 974.1 2.0 0.1
2015-Jan-29 12:00N 55°54' W 004°48'0 0.0 974.5 1.7-0.5
2015-Jan-29 11:00N 55°54' W 004°48'0 0.0 975.0 2.1-0.2
2015-Jan-29 10:00N 55°54' W 004°48'21 0.7 975.6 1.4-0.7
2015-Jan-28 05:00N 56°00' W 005°24'0 0.0 992.1 7.7 3.7
2015-Jan-28 04:00N 56°00' W 005°24'0 0.0 994.2 8.4 5.9
2015-Jan-28 03:00N 56°00' W 005°24'0 0.0 995.8 8.7 7.6
2015-Jan-28 02:00N 56°00' W 005°24'0 0.0 998.7 8.4 7.3
2015-Jan-28 01:00N 56°00' W 005°24'0 0.0 1001.2 8.1 7.0
2015-Jan-28 00:00N 56°00' W 005°24'0 0.0 1003.7 7.9 6.6
2015-Jan-27 23:00N 56°00' W 005°24'0 0.0 1005.2 7.9 6.3
2015-Jan-27 22:00N 56°00' W 005°24'0 0.0 1008.2 7.5 6.0
2015-Jan-27 21:00N 56°00' W 005°24'6 6.0 1010.2 7.1 5.5
2015-Jan-27 20:00N 55°54' W 005°24'9 9.0 1011.6 7.4 5.2
2015-Jan-27 19:00N 55°48' W 005°12'1212.5 1013.8 7.8 5.0
2015-Jan-27 18:00N 55°36' W 005°06'6 6.0 1016.2 7.5 5.4
2015-Jan-27 17:00N 55°30' W 005°06'0 0.0 1017.2 7.2 5.0
2015-Jan-27 16:00N 55°30' W 005°06'0 0.0 1018.5 7.5 5.0
2015-Jan-27 15:00N 55°30' W 005°06'7 6.9 1019.5 7.7 5.1
2015-Jan-27 14:00N 55°36' W 005°00'1212.0 1019.7 7.3 5.1
2015-Jan-27 13:00N 55°48' W 005°00'7 6.9 1020.8 7.8 5.5
2015-Jan-27 12:00N 55°54' W 004°54'3 3.4 1021.4 8.4 5.1
2015-Jan-27 11:00N 55°54' W 004°48'0 0.0 1022.1 8.4 5.4
2015-Jan-27 10:00N 55°54' W 004°48'0 0.0 1022.7 7.8 5.4
2015-Jan-27 09:00N 55°54' W 004°48'0 0.0 1022.9 7.4 5.4
2015-Jan-27 08:00N 55°54' W 004°48'0 0.0 1023.0 7.2 5.3
2015-Jan-27 07:00N 55°54' W 004°48'0 0.0 1022.8 7.2 5.3
2015-Jan-27 06:00N 55°54' W 004°48'0 0.0 1023.3 7.1 5.1
2015-Jan-27 05:00N 55°54' W 004°48'0 0.0 1023.6 6.9 5.0
2015-Jan-27 04:00N 55°54' W 004°48'0 0.0 1024.1 6.7 4.8
2015-Jan-27 03:00N 55°54' W 004°48'0 0.0 1024.3 6.7 4.5
2015-Jan-27 02:00N 55°54' W 004°48'0 0.0 1024.4 6.5 4.3
2015-Jan-27 01:00N 55°54' W 004°48'0 0.0 1024.4 6.5 3.6
2015-Jan-27 00:00N 55°54' W 004°48'0 0.0 1024.9 6.3 2.9
2015-Jan-26 23:00N 55°54' W 004°48'0 0.0 1025.0 6.5 2.8
2015-Jan-26 22:00N 55°54' W 004°48'0 0.0 1024.8 5.9 2.7
2015-Jan-26 21:00N 55°54' W 004°48'0 0.0 1024.7 6.3 2.3
2015-Jan-26 20:00N 55°54' W 004°48'0 0.0 1024.2 6.4 1.9
2015-Jan-26 19:00N 55°54' W 004°48'0 0.0 1024.0 6.6 1.8
2015-Jan-26 18:00N 55°54' W 004°48'0 0.0 1022.9 6.5 1.3
2015-Jan-26 17:00N 55°54' W 004°48'0 0.0 1022.4 6.6 1.4
2015-Jan-26 16:00N 55°54' W 004°48'0 0.0 1022.0 7.0 1.5
2015-Jan-26 15:00N 55°54' W 004°48'0 0.0 1021.1 6.7 2.0
2015-Jan-26 14:00N 55°54' W 004°48'0 0.0 1020.9 7.6 1.3
2015-Jan-26 13:00N 55°54' W 004°48'0 0.0 1020.4 7.2 1.3
2015-Jan-26 12:00N 55°54' W 004°48'78 2.7 1020.2 6.9 1.7
2015-Jan-25 07:00N 54°42' W 005°42'0 0.0 1023.8 7.2 4.4
2015-Jan-25 05:00N 54°42' W 005°42'0 0.0 1025.0 6.8 3.4
2015-Jan-25 04:00N 54°42' W 005°42'0 0.0 1025.4 6.6 3.0
2015-Jan-25 03:00N 54°42' W 005°42'0 0.0 1025.9 6.7 2.8
2015-Jan-25 02:00N 54°42' W 005°42'0 0.0 1025.6 6.4 2.4
2015-Jan-25 01:00N 54°42' W 005°42'0 0.0 1026.6 6.2 2.1
2015-Jan-25 00:00N 54°42' W 005°42'0 0.0 1026.8 6.2 1.9
2015-Jan-24 23:00N 54°42' W 005°42'0 0.0 1027.5 6.0 1.9
2015-Jan-24 22:00N 54°42' W 005°42'0 0.0 1028.4 5.9 1.7
2015-Jan-24 21:00N 54°42' W 005°42'0 0.0 1028.6 5.9 1.8
2015-Jan-24 20:00N 54°42' W 005°42'0 0.0 1029.0 5.8 1.9
2015-Jan-24 19:00N 54°42' W 005°42'7 6.9 1028.9 5.9 2.1
2015-Jan-24 18:00N 54°42' W 005°30'1212.5 1027.9 6.7 3.0
2015-Jan-24 17:00N 54°30' W 005°24'1212.0 1028.0 7.1 2.9
2015-Jan-24 16:00N 54°18' W 005°24'7 6.9 1027.8 7.4 2.7
2015-Jan-24 15:00N 54°12' W 005°30'1413.9 1027.8 7.9 3.1
2015-Jan-24 14:00N 54°00' W 005°42'7 7.0 1027.5 6.9 2.7
2015-Jan-24 13:00N 53°54' W 005°48'1312.5 1027.9 6.6 2.5
2015-Jan-24 12:00N 53°42' W 005°54'7 7.0 1028.0 6.6 2.2
2015-Jan-24 11:00N 53°36' W 006°00'1212.0 1027.8 4.8 1.1
2015-Jan-24 10:00N 53°24' W 006°00'36 1.1 1027.9 4.9 1.1
2015-Jan-23 02:00N 53°24' W 005°00'9 9.3 1021.1 8.0 4.9
2015-Jan-23 01:00N 53°30' W 004°48'7 7.0 1021.5 6.8 4.4
2015-Jan-23 00:00N 53°36' W 004°42'7 7.1 1022.4 6.2 3.7
2015-Jan-22 23:00N 53°36' W 004°30'7 7.1 1022.8 5.4 2.5
2015-Jan-22 22:00N 53°36' W 004°18'7 7.1 1023.2 5.5 2.7
2015-Jan-22 21:00N 53°36' W 004°06'7 7.1 1023.7 5.1 2.2
2015-Jan-22 20:00N 53°36' W 003°54'7 7.1 1024.0 5.5 2.2
2015-Jan-22 19:00N 53°36' W 003°42'9 9.3 1023.7 5.4 2.1
2015-Jan-22 18:00N 53°42' W 003°30'7 7.1 1023.9 4.9 1.5
2015-Jan-22 17:00N 53°42' W 003°18'4 3.6 1023.2 4.2 1.3
2015-Jan-22 16:00N 53°42' W 003°12'0 0.0 1023.1 4.0 1.0
2015-Jan-22 15:00N 53°42' W 003°12'0 0.0 1022.4 4.0 1.2
2015-Jan-22 14:00N 53°42' W 003°12'0 0.0 1021.8 3.7 1.0
2015-Jan-22 13:00N 53°42' W 003°12'0 0.0 1021.7 3.3 0.7
2015-Jan-22 12:00N 53°42' W 003°12'7 7.0 1021.3 2.5 0.1
2015-Jan-22 11:00N 53°48' W 003°18'16 0.8 1021.3 3.2 0.5
2015-Jan-21 14:00N 54°00' W 003°36'1212.0 1007.9 3.6 0.8
2015-Jan-21 13:00N 54°12' W 003°36'1212.0 1007.6 4.6 1.3
2015-Jan-21 12:00N 54°24' W 003°36'   1007.4 4.5 0.1

Dump ship's entire track history